Time;durP1;ratioP1;P1;durP2;ratioP2;P2;SDS_P1;SDS_P2;PMS_P1;PMS_P2;Temp;Humidity;BMP_temperature;BMP_pressure;BME280_temperature;BME280_humidity;BME280_pressure;Samples;Min_cycle;Max_cycle;Signal;HPM_P1;HPM_P2
2022/09/29 00:00:53;;;;;;;15.88;3.10;;;19.30;96.70;;;;;;5072363;28;20047;-89
2022/09/29 00:03:21;;;;;;;10.95;2.25;;;19.40;96.70;;;;;;5089238;28;20145;-89
2022/09/29 00:05:51;;;;;;;15.25;2.92;;;19.40;96.70;;;;;;5088250;28;20074;-89
2022/09/29 00:08:20;;;;;;;13.40;2.65;;;19.40;96.70;;;;;;5089916;28;20036;-89
2022/09/29 00:10:48;;;;;;;11.40;2.58;;;19.50;96.70;;;;;;5070912;28;20053;-88
2022/09/29 00:13:17;;;;;;;12.60;2.65;;;19.50;96.70;;;;;;5068489;28;20048;-88
2022/09/29 00:15:53;;;;;;;15.02;2.70;;;19.50;96.70;;;;;;5070627;28;20507;-88
2022/09/29 00:18:22;;;;;;;16.20;2.80;;;19.50;96.70;;;;;;5068125;28;20110;-89
2022/09/29 00:21:01;;;;;;;10.38;2.30;;;19.50;96.70;;;;;;5085897;28;20525;-89
2022/09/29 00:23:30;;;;;;;11.43;2.40;;;19.60;96.70;;;;;;5085406;28;20060;-89
2022/09/29 00:26:00;;;;;;;11.60;2.40;;;19.60;96.70;;;;;;5089534;28;20036;-90
2022/09/29 00:28:30;;;;;;;10.65;2.97;;;19.60;96.70;;;;;;5089496;28;20036;-89
2022/09/29 00:31:00;;;;;;;13.70;1.95;;;19.60;96.70;;;;;;5084015;28;20052;-86
2022/09/29 00:33:31;;;;;;;11.32;3.20;;;19.60;96.70;;;;;;5081047;28;20065;-87
2022/09/29 00:36:02;;;;;;;14.65;2.55;;;19.50;96.70;;;;;;5078327;28;20075;-86
2022/09/29 00:38:32;;;;;;;11.10;2.05;;;19.50;96.70;;;;;;5071316;28;20043;-87
2022/09/29 00:41:00;;;;;;;10.50;1.85;;;19.50;96.70;;;;;;5094370;28;20044;-88
2022/09/29 00:43:51;;;;;;;10.93;2.15;;;19.50;96.70;;;;;;5083470;28;20075;-88
2022/09/29 00:46:25;;;;;;;15.85;2.95;;;19.50;96.70;;;;;;5062860;28;20044;-87
2022/09/29 00:48:58;;;;;;;10.20;1.80;;;19.50;96.70;;;;;;5087327;28;20089;-86
2022/09/29 00:51:29;;;;;;;13.00;2.55;;;19.60;96.70;;;;;;5088383;28;20047;-88
2022/09/29 00:53:58;;;;;;;15.65;2.60;;;19.50;96.70;;;;;;5088540;28;20032;-86
2022/09/29 00:56:27;;;;;;;11.32;2.28;;;19.50;96.70;;;;;;5077622;28;20037;-87
2022/09/29 00:59:00;;;;;;;11.60;1.85;;;19.60;96.70;;;;;;5081908;28;20155;-86
2022/09/29 01:01:31;;;;;;;10.45;1.80;;;19.60;96.70;;;;;;5081930;28;20051;-88
2022/09/29 01:04:03;;;;;;;9.68;1.63;;;19.50;96.70;;;;;;5079852;28;20135;-87
2022/09/29 01:06:35;;;;;;;13.10;2.50;;;19.50;96.70;;;;;;5087606;28;20040;-86
2022/09/29 01:09:05;;;;;;;12.27;2.10;;;19.50;96.70;;;;;;5082036;28;20053;-86
2022/09/29 01:11:34;;;;;;;14.02;2.60;;;19.50;96.70;;;;;;5081344;28;20044;-86
2022/09/29 01:14:05;;;;;;;14.93;3.00;;;19.50;96.70;;;;;;5088089;28;20087;-86
2022/09/29 01:16:36;;;;;;;10.68;2.38;;;19.50;96.70;;;;;;5068339;28;20059;-86
2022/09/29 01:19:10;;;;;;;11.45;2.67;;;19.50;96.70;;;;;;5081804;28;20058;-86
2022/09/29 01:21:51;;;;;;;12.98;2.95;;;19.60;96.70;;;;;;5088601;28;20040;-87
2022/09/29 01:25:02;;;;;;;12.68;2.40;;;19.60;96.70;;;;;;5088487;28;20048;-88
2022/09/29 01:28:20;;;;;;;9.27;1.75;;;19.60;96.70;;;;;;4997920;28;20069;-89
2022/09/29 01:31:13;;;;;;;11.80;2.63;;;19.60;96.70;;;;;;5008905;28;20053;-88
2022/09/29 01:33:47;;;;;;;12.63;2.10;;;19.60;96.70;;;;;;4991776;28;20077;-87
2022/09/29 01:36:27;;;;;;;14.20;3.33;;;19.60;96.70;;;;;;4998461;28;20181;-87
2022/09/29 01:39:05;;;;;;;9.93;2.08;;;19.50;96.70;;;;;;5022426;28;20196;-86
2022/09/29 01:41:40;;;;;;;13.15;2.17;;;19.50;96.70;;;;;;5005592;28;20064;-85
2022/09/29 01:44:17;;;;;;;8.80;2.13;;;19.50;96.70;;;;;;5008779;28;20124;-86
2022/09/29 01:46:51;;;;;;;10.75;2.75;;;19.50;96.70;;;;;;4999657;28;20136;-87
2022/09/29 01:49:22;;;;;;;9.82;2.38;;;19.50;96.70;;;;;;5005060;28;20515;-86
2022/09/29 01:51:54;;;;;;;12.80;2.08;;;19.40;96.70;;;;;;5003694;28;20056;-88
2022/09/29 01:54:28;;;;;;;12.65;2.10;;;19.50;96.70;;;;;;5019846;28;20068;-88
2022/09/29 01:57:01;;;;;;;12.10;2.67;;;19.50;96.70;;;;;;5009354;28;20703;-87
2022/09/29 01:59:37;;;;;;;14.55;2.83;;;19.50;96.70;;;;;;4990161;28;20046;-87
2022/09/29 02:02:11;;;;;;;11.57;1.73;;;19.40;96.70;;;;;;5028022;28;20054;-88
2022/09/29 02:04:45;;;;;;;14.55;2.78;;;19.40;96.70;;;;;;5028834;28;20083;-87
2022/09/29 02:07:21;;;;;;;8.77;1.75;;;19.40;96.70;;;;;;5085024;28;20040;-87
2022/09/29 02:09:56;;;;;;;13.77;2.50;;;19.40;96.70;;;;;;5087991;28;20501;-89
2022/09/29 02:12:28;;;;;;;10.75;2.30;;;19.40;96.70;;;;;;5086086;28;20056;-87
2022/09/29 02:14:57;;;;;;;11.30;2.70;;;19.40;96.70;;;;;;5085691;28;20056;-85
2022/09/29 02:17:32;;;;;;;9.68;1.80;;;19.40;96.70;;;;;;5074431;28;20114;-85
2022/09/29 02:20:01;;;;;;;10.32;1.95;;;19.40;96.70;;;;;;5086024;28;20056;-85
2022/09/29 02:22:30;;;;;;;11.02;2.30;;;19.30;96.70;;;;;;5091743;28;20036;-87
2022/09/29 02:24:59;;;;;;;14.13;2.40;;;19.30;96.70;;;;;;5090275;28;20052;-86
2022/09/29 02:27:28;;;;;;;13.63;3.03;;;19.30;96.70;;;;;;5081987;28;20073;-85
2022/09/29 02:29:58;;;;;;;10.65;1.77;;;19.30;96.70;;;;;;5090214;28;20044;-82
2022/09/29 02:32:30;;;;;;;13.32;2.15;;;19.30;96.70;;;;;;5090493;28;20497;-87
2022/09/29 02:35:00;;;;;;;12.73;2.08;;;19.30;96.70;;;;;;5088957;28;20439;-88
2022/09/29 02:37:40;;;;;;;13.20;2.03;;;19.30;96.70;;;;;;5082723;28;20044;-86
2022/09/29 02:40:28;;;;;;;13.93;3.53;;;19.30;96.70;;;;;;5090372;28;20141;-85
2022/09/29 02:43:22;;;;;;;14.10;2.25;;;19.30;96.70;;;;;;5073092;28;20142;-85
2022/09/29 02:46:05;;;;;;;15.25;2.50;;;19.30;96.70;;;;;;5085580;28;20127;-87
2022/09/29 02:49:06;;;;;;;13.40;2.58;;;19.30;96.70;;;;;;5089778;28;20410;-87
2022/09/29 02:51:39;;;;;;;10.25;1.90;;;19.30;96.70;;;;;;5074693;28;20542;-87
2022/09/29 02:54:29;;;;;;;21.27;3.17;;;19.30;96.70;;;;;;5089508;28;20421;-88
2022/09/29 02:57:13;;;;;;;12.65;2.45;;;19.30;96.70;;;;;;5090067;28;20056;-88
2022/09/29 02:59:49;;;;;;;13.20;2.45;;;19.30;96.70;;;;;;5069724;28;20048;-88
2022/09/29 03:02:24;;;;;;;7.72;1.42;;;19.30;96.70;;;;;;5081221;28;20120;-88
2022/09/29 03:04:54;;;;;;;15.65;2.83;;;19.20;96.70;;;;;;5082576;28;20046;-87
2022/09/29 03:07:22;;;;;;;13.13;2.72;;;19.20;96.70;;;;;;5075432;28;20130;-83
2022/09/29 03:09:50;;;;;;;15.93;2.65;;;19.20;96.70;;;;;;5089288;28;20051;-80
2022/09/29 03:12:19;;;;;;;11.15;1.98;;;19.10;96.70;;;;;;5088166;28;20044;-80
2022/09/29 03:14:47;;;;;;;13.57;2.17;;;19.10;96.70;;;;;;5071553;28;20109;-81
2022/09/29 03:17:15;;;;;;;9.80;2.30;;;19.10;96.70;;;;;;5087240;28;20048;-81
2022/09/29 03:19:44;;;;;;;12.48;2.67;;;19.10;96.70;;;;;;5085278;28;20101;-82
2022/09/29 03:22:13;;;;;;;10.90;2.08;;;19.10;96.70;;;;;;5088771;28;20076;-80
2022/09/29 03:24:42;;;;;;;10.55;2.30;;;19.10;96.70;;;;;;5087032;28;20097;-82
2022/09/29 03:27:10;;;;;;;10.60;2.17;;;19.10;96.70;;;;;;5086684;28;20130;-81
2022/09/29 03:29:39;;;;;;;13.82;1.92;;;19.10;96.70;;;;;;5082322;28;20058;-82
2022/09/29 03:32:07;;;;;;;11.25;1.88;;;19.10;96.70;;;;;;5080131;28;20051;-82
2022/09/29 03:34:35;;;;;;;10.85;1.98;;;19.00;96.70;;;;;;5084387;28;20073;-81
2022/09/29 03:37:04;;;;;;;8.60;2.47;;;19.00;96.70;;;;;;5084553;28;20036;-82
2022/09/29 03:39:34;;;;;;;10.93;2.22;;;19.00;96.70;;;;;;5078062;28;20422;-82
2022/09/29 03:42:02;;;;;;;8.75;2.13;;;19.00;96.70;;;;;;5084576;28;20075;-82
2022/09/29 03:44:30;;;;;;;10.30;1.70;;;19.00;96.70;;;;;;5085136;28;20055;-81
2022/09/29 03:46:59;;;;;;;10.73;2.00;;;19.00;96.70;;;;;;5085111;28;20036;-80
2022/09/29 03:49:28;;;;;;;12.02;2.40;;;19.00;96.70;;;;;;5083956;28;20497;-81
2022/09/29 03:51:56;;;;;;;6.70;1.70;;;19.00;96.70;;;;;;5086735;28;20052;-80
2022/09/29 03:54:26;;;;;;;8.35;1.88;;;18.90;96.70;;;;;;5077109;28;20056;-81
2022/09/29 03:56:56;;;;;;;11.73;1.95;;;18.90;96.70;;;;;;5085752;28;20040;-81
2022/09/29 03:59:24;;;;;;;12.93;2.25;;;18.90;96.70;;;;;;5065991;28;20589;-81
2022/09/29 04:01:52;;;;;;;15.23;2.65;;;18.90;96.70;;;;;;5080146;28;20517;-81
2022/09/29 04:04:21;;;;;;;10.85;1.90;;;18.90;96.70;;;;;;5097359;28;20117;-81
2022/09/29 04:06:49;;;;;;;13.23;2.17;;;18.90;96.70;;;;;;5069095;28;20082;-81
2022/09/29 04:09:17;;;;;;;12.80;2.42;;;18.90;96.70;;;;;;5069061;28;20690;-81
2022/09/29 04:11:46;;;;;;;12.88;2.50;;;18.90;96.70;;;;;;5085847;28;20052;-81
2022/09/29 04:14:15;;;;;;;10.23;2.60;;;18.80;96.70;;;;;;5069579;28;20056;-80
2022/09/29 04:16:44;;;;;;;10.40;2.38;;;18.80;96.70;;;;;;5086790;28;20051;-81
2022/09/29 04:19:12;;;;;;;8.25;1.80;;;18.80;96.70;;;;;;5083813;28;20044;-81
2022/09/29 04:21:40;;;;;;;14.27;2.30;;;18.80;96.70;;;;;;5086744;28;20047;-81
2022/09/29 04:24:09;;;;;;;10.57;2.20;;;18.70;96.70;;;;;;5084763;28;20074;-82
2022/09/29 04:26:38;;;;;;;10.15;1.73;;;18.70;96.70;;;;;;5068352;28;20048;-78
2022/09/29 04:29:06;;;;;;;9.13;1.83;;;18.70;96.70;;;;;;5079606;28;20029;-80
2022/09/29 04:31:36;;;;;;;11.85;1.88;;;18.70;96.70;;;;;;5078516;28;20097;-80
2022/09/29 04:34:04;;;;;;;13.65;2.08;;;18.70;96.70;;;;;;5081271;28;20039;-80
2022/09/29 04:36:32;;;;;;;12.77;2.03;;;18.70;96.70;;;;;;5091343;28;20102;-79
2022/09/29 04:39:00;;;;;;;10.55;2.33;;;18.70;96.70;;;;;;5081579;28;20044;-79
2022/09/29 04:41:32;;;;;;;12.75;2.25;;;18.70;96.70;;;;;;5084642;28;20052;-79
2022/09/29 04:44:01;;;;;;;15.27;2.50;;;18.60;96.70;;;;;;5083987;28;20051;-79
2022/09/29 04:46:29;;;;;;;11.18;1.85;;;18.60;96.70;;;;;;5081010;28;20040;-80
2022/09/29 04:48:59;;;;;;;14.30;2.15;;;18.60;96.70;;;;;;5082558;28;20129;-80
2022/09/29 04:51:27;;;;;;;12.07;2.58;;;18.60;96.70;;;;;;5078499;28;20148;-80
2022/09/29 04:53:56;;;;;;;11.07;1.67;;;18.60;96.70;;;;;;5081170;28;20040;-80
2022/09/29 04:56:30;;;;;;;6.25;1.67;;;18.60;96.70;;;;;;5082071;28;20457;-80
2022/09/29 04:58:58;;;;;;;12.50;2.42;;;18.60;96.70;;;;;;5082020;28;20064;-80
2022/09/29 05:01:26;;;;;;;13.32;1.75;;;18.60;96.70;;;;;;5081613;28;20032;-80
2022/09/29 05:03:54;;;;;;;12.20;2.10;;;18.60;96.70;;;;;;5081243;28;20044;-80
2022/09/29 05:06:24;;;;;;;9.70;1.83;;;18.60;96.70;;;;;;5079768;28;20044;-80
2022/09/29 05:08:52;;;;;;;9.82;1.85;;;18.50;96.70;;;;;;5082368;28;20076;-80
2022/09/29 05:11:20;;;;;;;12.05;2.45;;;18.60;96.70;;;;;;5083571;28;20233;-79
2022/09/29 05:13:51;;;;;;;8.98;1.50;;;18.50;96.70;;;;;;5082455;28;20048;-81
2022/09/29 05:16:19;;;;;;;8.27;1.73;;;18.50;96.70;;;;;;5065148;28;20218;-80
2022/09/29 05:18:48;;;;;;;12.82;2.25;;;18.60;96.70;;;;;;5080327;28;20067;-79
2022/09/29 05:21:17;;;;;;;5.15;1.42;;;18.60;96.70;;;;;;5080119;28;20059;-80
2022/09/29 05:24:02;;;;;;;9.63;1.92;;;18.60;96.70;;;;;;5083449;28;20142;-79
2022/09/29 05:26:30;;;;;;;9.80;2.38;;;18.70;96.70;;;;;;5083344;28;20052;-79
2022/09/29 05:28:58;;;;;;;7.68;2.05;;;18.60;96.70;;;;;;5083329;28;20044;-80
2022/09/29 05:31:26;;;;;;;8.65;2.13;;;18.70;96.70;;;;;;5082453;28;20040;-80
2022/09/29 05:33:55;;;;;;;9.50;1.88;;;18.60;96.70;;;;;;5084213;28;20528;-79
2022/09/29 05:36:23;;;;;;;8.55;1.98;;;18.60;96.70;;;;;;5083531;28;20040;-78
2022/09/29 05:38:51;;;;;;;10.07;2.33;;;18.50;96.70;;;;;;5065782;28;20071;-80
2022/09/29 05:41:22;;;;;;;5.95;1.77;;;18.50;96.70;;;;;;5082338;28;20127;-78
2022/09/29 05:43:52;;;;;;;11.65;1.95;;;18.50;96.70;;;;;;5075818;28;20073;-77
2022/09/29 05:46:21;;;;;;;7.38;1.88;;;18.50;96.70;;;;;;5076352;28;20123;-77
2022/09/29 05:48:50;;;;;;;9.60;2.13;;;18.50;96.70;;;;;;5081055;28;20052;-77
2022/09/29 05:51:20;;;;;;;7.88;2.22;;;18.50;96.70;;;;;;5078562;28;20044;-77
2022/09/29 05:53:50;;;;;;;7.10;1.48;;;18.50;96.70;;;;;;5079728;28;20414;-78
2022/09/29 05:56:22;;;;;;;9.20;2.55;;;18.60;96.70;;;;;;5087366;28;20101;-79
2022/09/29 05:58:51;;;;;;;8.52;2.00;;;18.60;96.70;;;;;;5082726;28;20040;-78
2022/09/29 06:01:20;;;;;;;11.00;2.50;;;18.50;96.70;;;;;;5085400;28;20549;-78
2022/09/29 06:03:50;;;;;;;12.75;2.30;;;18.50;96.70;;;;;;5056323;28;20562;-78
2022/09/29 06:06:19;;;;;;;9.25;2.20;;;18.60;96.70;;;;;;5084701;28;20535;-79
2022/09/29 06:08:48;;;;;;;10.27;2.38;;;18.60;96.70;;;;;;5088442;28;20473;-79
2022/09/29 06:11:18;;;;;;;14.43;2.65;;;18.50;96.70;;;;;;5087328;28;20042;-80
2022/09/29 06:13:49;;;;;;;14.90;2.80;;;18.50;96.70;;;;;;5087332;28;20052;-79
2022/09/29 06:16:18;;;;;;;12.23;2.85;;;18.50;96.70;;;;;;5083020;28;20048;-79
2022/09/29 06:18:47;;;;;;;15.65;2.58;;;18.40;96.70;;;;;;5087983;28;20094;-80
2022/09/29 06:21:17;;;;;;;13.20;2.97;;;18.50;96.70;;;;;;5085717;28;20052;-79
2022/09/29 06:23:45;;;;;;;11.70;2.13;;;18.50;96.70;;;;;;5087765;28;20047;-80
2022/09/29 06:26:15;;;;;;;9.98;3.03;;;18.60;96.70;;;;;;5086515;28;20039;-84
2022/09/29 06:28:51;;;;;;;10.52;2.03;;;18.60;96.70;;;;;;5083241;28;20048;-82
2022/09/29 06:31:21;;;;;;;8.50;2.03;;;18.60;96.70;;;;;;5089978;28;20118;-80
2022/09/29 06:33:50;;;;;;;10.93;2.28;;;18.70;96.70;;;;;;5079542;28;20051;-81
2022/09/29 06:39:08;;;;;;;10.85;2.10;;;18.80;96.70;;;;;;5078917;28;20039;-80
2022/09/29 06:41:36;;;;;;;6.85;1.48;;;18.90;96.70;;;;;;5086648;28;20075;-80
2022/09/29 06:44:07;;;;;;;7.50;1.65;;;19.00;96.70;;;;;;5079248;28;20134;-79
2022/09/29 06:46:36;;;;;;;9.13;1.63;;;19.10;96.70;;;;;;5086331;28;20048;-80
2022/09/29 06:49:04;;;;;;;9.55;1.90;;;19.20;96.70;;;;;;5084441;28;20044;-79
2022/09/29 06:51:34;;;;;;;10.13;1.95;;;19.30;96.70;;;;;;5087124;28;20048;-79
2022/09/29 06:54:14;;;;;;;12.60;1.95;;;19.50;96.70;;;;;;5085803;28;20048;-79
2022/09/29 06:56:42;;;;;;;15.48;2.50;;;19.70;96.70;;;;;;5086158;28;20121;-81
2022/09/29 06:59:11;;;;;;;15.02;2.10;;;19.80;96.70;;;;;;5071924;28;20151;-81
2022/09/29 07:01:39;;;;;;;7.05;1.55;;;19.80;96.70;;;;;;5088391;28;20097;-81
2022/09/29 07:04:07;;;;;;;8.45;1.55;;;19.90;96.70;;;;;;5085644;28;20048;-81
2022/09/29 07:06:35;;;;;;;7.18;2.03;;;20.00;96.70;;;;;;5065155;28;20040;-79
2022/09/29 07:09:03;;;;;;;10.70;2.15;;;20.10;96.70;;;;;;5083158;28;20134;-80
2022/09/29 07:11:31;;;;;;;8.02;2.00;;;20.20;96.70;;;;;;5086276;28;20062;-81
2022/09/29 07:13:59;;;;;;;11.20;1.98;;;20.30;96.70;;;;;;5084595;28;20151;-81
2022/09/29 07:16:29;;;;;;;9.15;1.48;;;20.30;96.70;;;;;;5085642;28;20105;-79
2022/09/29 07:18:57;;;;;;;10.05;1.80;;;20.40;96.70;;;;;;5079979;28;20405;-80
2022/09/29 07:21:24;;;;;;;11.25;2.45;;;20.40;96.70;;;;;;5081838;28;20501;-79
2022/09/29 07:23:53;;;;;;;10.48;2.50;;;20.50;96.70;;;;;;5084814;28;20494;-79
2022/09/29 07:26:28;;;;;;;13.15;2.10;;;20.60;96.70;;;;;;5082051;28;20666;-80
2022/09/29 07:28:56;;;;;;;12.73;2.10;;;20.70;96.70;;;;;;5085817;28;20047;-81
2022/09/29 07:31:25;;;;;;;7.55;1.70;;;20.70;96.70;;;;;;5087261;28;20486;-79
2022/09/29 07:33:56;;;;;;;8.27;2.47;;;20.80;96.70;;;;;;5085674;28;20044;-80
2022/09/29 07:36:24;;;;;;;7.75;1.85;;;20.90;96.70;;;;;;5083410;28;20569;-81
2022/09/29 07:38:52;;;;;;;11.30;2.20;;;20.90;96.70;;;;;;5085056;28;20052;-79
2022/09/29 07:41:22;;;;;;;10.73;2.10;;;20.90;96.70;;;;;;5065139;28;20143;-80
2022/09/29 07:43:50;;;;;;;7.45;1.80;;;20.90;96.70;;;;;;5084768;28;20127;-79
2022/09/29 07:46:18;;;;;;;11.05;1.77;;;20.90;96.70;;;;;;5069220;28;20032;-80
2022/09/29 07:48:46;;;;;;;10.75;2.33;;;20.90;96.70;;;;;;5079302;28;20139;-79
2022/09/29 07:51:18;;;;;;;8.93;2.05;;;20.90;96.70;;;;;;5084295;28;20040;-79
2022/09/29 07:53:46;;;;;;;11.13;2.42;;;20.90;96.70;;;;;;5086056;28;20040;-79
2022/09/29 07:56:17;;;;;;;13.10;1.75;;;20.90;96.70;;;;;;5100624;28;20063;-79
2022/09/29 07:58:45;;;;;;;8.50;1.67;;;20.90;96.70;;;;;;5083021;28;20419;-80
2022/09/29 08:01:14;;;;;;;10.00;2.25;;;20.90;96.70;;;;;;5084086;28;20040;-80
2022/09/29 08:03:47;;;;;;;11.40;1.80;;;20.90;96.70;;;;;;5076521;28;20040;-80
2022/09/29 08:06:18;;;;;;;9.48;2.15;;;20.90;96.70;;;;;;5083947;28;20036;-82
2022/09/29 08:08:46;;;;;;;12.52;2.30;;;20.90;96.70;;;;;;5085373;28;20054;-80
2022/09/29 08:11:29;;;;;;;12.32;1.85;;;20.90;96.70;;;;;;5082916;28;20055;-80
2022/09/29 08:13:59;;;;;;;11.55;1.85;;;20.90;96.70;;;;;;5084686;28;20099;-80
2022/09/29 08:16:28;;;;;;;11.45;1.52;;;21.00;96.70;;;;;;5084151;28;20142;-81
2022/09/29 08:18:56;;;;;;;8.23;1.55;;;21.00;96.70;;;;;;5084817;28;20457;-80
2022/09/29 08:21:26;;;;;;;9.30;1.88;;;21.10;96.70;;;;;;5085766;28;20087;-80
2022/09/29 08:23:55;;;;;;;9.20;1.60;;;21.20;96.70;;;;;;5083965;28;20055;-81
2022/09/29 08:26:23;;;;;;;8.98;1.48;;;21.30;96.70;;;;;;5080532;28;20040;-81
2022/09/29 08:29:07;;;;;;;13.30;1.83;;;21.50;96.70;;;;;;5080629;28;20054;-80
2022/09/29 08:31:36;;;;;;;8.82;1.75;;;21.70;96.70;;;;;;5081287;28;20039;-80
2022/09/29 08:34:06;;;;;;;9.88;1.83;;;21.80;96.70;;;;;;5084232;28;20059;-79
2022/09/29 08:36:35;;;;;;;6.88;1.38;;;21.90;96.70;;;;;;5085315;28;20039;-81
2022/09/29 08:39:04;;;;;;;9.50;1.60;;;22.00;96.70;;;;;;5083736;28;20680;-80
2022/09/29 08:41:45;;;;;;;9.45;1.50;;;22.10;96.70;;;;;;5065470;28;20056;-81
2022/09/29 08:44:18;;;;;;;10.20;1.95;;;22.20;96.70;;;;;;5082101;28;21085;-81
2022/09/29 08:47:14;;;;;;;6.85;1.67;;;22.30;96.70;;;;;;5085744;28;20066;-79
2022/09/29 08:49:46;;;;;;;7.03;1.20;;;22.40;96.70;;;;;;5084607;28;20066;-79
2022/09/29 08:52:20;;;;;;;10.30;1.80;;;22.50;96.70;;;;;;5066211;28;20055;-81
2022/09/29 08:54:53;;;;;;;10.10;2.30;;;22.40;96.70;;;;;;5077290;28;20052;-80
2022/09/29 08:57:21;;;;;;;13.82;2.55;;;22.20;96.70;;;;;;5084265;28;20048;-80
2022/09/29 08:59:53;;;;;;;9.15;2.00;;;22.10;96.70;;;;;;5062229;28;20051;-80
2022/09/29 09:02:49;;;;;;;7.45;1.98;;;21.90;96.70;;;;;;5082963;28;20548;-80
2022/09/29 09:05:48;;;;;;;11.57;2.22;;;21.80;96.70;;;;;;5094626;27;20044;-81
2022/09/29 09:08:37;;;;;;;14.52;2.15;;;21.70;96.70;;;;;;5082762;28;20040;-80
2022/09/29 09:11:27;;;;;;;15.18;1.85;;;21.80;96.70;;;;;;5079285;28;20048;-80
2022/09/29 09:14:06;;;;;;;9.00;1.98;;;21.70;96.70;;;;;;5081752;28;20079;-80
2022/09/29 09:16:46;;;;;;;10.95;2.22;;;21.70;96.70;;;;;;5079011;28;20040;-80
2022/09/29 09:19:38;;;;;;;11.27;2.13;;;21.70;96.70;;;;;;5079241;28;20071;-80
2022/09/29 09:22:13;;;;;;;;;;;21.80;96.70;;;;;;5072813;28;20045;-79
2022/09/29 09:24:48;;;;;;;11.35;2.15;;;21.90;96.70;;;;;;5084357;28;19958;-81
2022/09/29 09:27:21;;;;;;;7.35;1.90;;;22.00;96.70;;;;;;5080677;28;20553;-80
2022/09/29 09:29:52;;;;;;;13.85;2.55;;;22.00;96.70;;;;;;5062325;28;20122;-80
2022/09/29 09:32:24;;;;;;;9.52;1.60;;;22.10;96.70;;;;;;5092187;28;20079;-80
2022/09/29 09:34:57;;;;;;;12.07;2.53;;;22.10;96.70;;;;;;5080162;28;20063;-80
2022/09/29 09:37:38;;;;;;;9.82;1.75;;;22.10;96.70;;;;;;5065312;28;20044;-80
2022/09/29 09:40:17;;;;;;;7.43;1.80;;;22.00;96.70;;;;;;5084745;28;20695;-81
2022/09/29 09:42:52;;;;;;;12.68;2.50;;;22.00;96.70;;;;;;5083852;28;20105;-80
2022/09/29 09:45:26;;;;;;;10.60;3.03;;;21.90;96.70;;;;;;5081464;28;20089;-80
2022/09/29 09:48:00;;;;;;;9.57;2.22;;;21.90;96.70;;;;;;5081115;28;20040;-80
2022/09/29 09:50:28;;;;;;;9.15;1.95;;;21.80;96.70;;;;;;5082121;28;20048;-80
2022/09/29 09:53:00;;;;;;;11.48;2.13;;;21.90;96.70;;;;;;5082597;28;20611;-79
2022/09/29 09:55:35;;;;;;;11.15;2.40;;;22.00;96.70;;;;;;5065115;28;20052;-80
2022/09/29 09:58:15;;;;;;;10.55;1.98;;;22.30;96.70;;;;;;5082543;28;20143;-80
2022/09/29 10:00:46;;;;;;;12.10;2.35;;;22.40;96.70;;;;;;5082638;28;20043;-81
2022/09/29 10:03:15;;;;;;;10.48;1.90;;;22.30;96.70;;;;;;5082914;28;20048;-80
2022/09/29 10:05:44;;;;;;;8.50;1.67;;;22.20;96.70;;;;;;5083939;28;20085;-79
2022/09/29 10:08:17;;;;;;;8.75;1.65;;;22.10;96.70;;;;;;5079799;28;20048;-80
2022/09/29 10:10:47;;;;;;;9.68;2.22;;;22.00;96.70;;;;;;5096176;28;20040;-80
2022/09/29 10:13:27;;;;;;;9.45;2.50;;;22.00;96.70;;;;;;5083258;28;20051;-80
2022/09/29 10:15:58;;;;;;;11.23;2.92;;;22.10;96.70;;;;;;5084658;28;20117;-80
2022/09/29 10:18:29;;;;;;;9.90;2.15;;;22.10;96.70;;;;;;5084429;28;20040;-80
2022/09/29 10:20:57;;;;;;;6.55;1.90;;;22.20;96.70;;;;;;5081827;28;20449;-80
2022/09/29 10:23:30;;;;;;;9.63;1.85;;;22.20;96.70;;;;;;5082758;28;20469;-80
2022/09/29 10:26:05;;;;;;;10.90;1.90;;;22.20;96.70;;;;;;5073493;28;20047;-80
2022/09/29 10:28:46;;;;;;;12.50;2.40;;;22.20;96.70;;;;;;5084888;28;20072;-80
2022/09/29 10:31:19;;;;;;;10.88;2.63;;;22.20;96.70;;;;;;5080354;28;20379;-80
2022/09/29 10:33:51;;;;;;;11.30;2.20;;;22.20;96.70;;;;;;5076843;28;20155;-80
2022/09/29 10:36:20;;;;;;;14.15;1.90;;;22.10;96.70;;;;;;5078798;28;20048;-80
2022/09/29 10:38:50;;;;;;;8.52;1.67;;;22.00;96.70;;;;;;5082940;28;20066;-80
2022/09/29 10:41:19;;;;;;;11.63;1.90;;;22.00;96.70;;;;;;5084252;28;20052;-80
2022/09/29 10:43:48;;;;;;;10.27;2.35;;;22.20;96.70;;;;;;5086492;28;20032;-80
2022/09/29 10:46:48;;;;;;;11.55;1.85;;;22.20;96.70;;;;;;5085336;28;20040;-80
2022/09/29 10:49:18;;;;;;;8.25;1.63;;;22.20;96.70;;;;;;5056934;28;20071;-85
2022/09/29 10:51:55;;;;;;;8.45;1.73;;;22.20;96.70;;;;;;5086798;28;20043;-87
2022/09/29 10:54:25;;;;;;;9.55;1.40;;;22.10;96.70;;;;;;5089709;28;20051;-83
2022/09/29 10:56:56;;;;;;;8.50;1.30;;;22.00;96.70;;;;;;5085497;28;20064;-85
2022/09/29 10:59:25;;;;;;;8.10;1.50;;;22.00;96.70;;;;;;5071859;28;20147;-84
2022/09/29 11:01:55;;;;;;;6.75;1.83;;;22.00;96.70;;;;;;5089407;28;20089;-82
2022/09/29 11:04:27;;;;;;;9.27;1.65;;;22.00;96.70;;;;;;5090248;28;20052;-82
2022/09/29 11:06:56;;;;;;;7.93;1.55;;;21.90;96.70;;;;;;5090348;28;20051;-85
2022/09/29 11:09:37;;;;;;;10.13;2.03;;;22.10;96.70;;;;;;5072071;28;20032;-86
2022/09/29 11:12:26;;;;;;;6.90;1.92;;;22.50;96.70;;;;;;5090623;28;20114;-85
2022/09/29 11:14:54;;;;;;;7.65;1.05;;;22.90;96.70;;;;;;5069347;28;20135;-84
2022/09/29 11:17:24;;;;;;;6.82;1.67;;;23.20;96.70;;;;;;5073050;28;20554;-85
2022/09/29 11:20:08;;;;;;;10.02;1.48;;;23.40;96.70;;;;;;5088843;28;20377;-86
2022/09/29 11:23:00;;;;;;;11.85;2.28;;;23.50;96.70;;;;;;5082951;28;20051;-85
2022/09/29 11:25:55;;;;;;;9.23;1.60;;;23.50;96.70;;;;;;5087541;28;20048;-85
2022/09/29 11:28:38;;;;;;;9.73;1.55;;;23.20;96.70;;;;;;5079564;28;20303;-84
2022/09/29 11:31:22;;;;;;;11.27;2.08;;;23.20;96.70;;;;;;5089313;28;20044;-84
2022/09/29 11:34:01;;;;;;;7.68;1.77;;;23.30;96.70;;;;;;5077193;28;20116;-83
2022/09/29 11:36:37;;;;;;;9.50;1.40;;;23.20;96.70;;;;;;5064369;28;20064;-83
2022/09/29 11:39:51;;;;;;;5.63;1.35;;;23.00;96.70;;;;;;5086749;28;20048;-85
2022/09/29 11:42:51;;;;;;;6.45;1.60;;;23.00;96.70;;;;;;5086015;28;20047;-80
2022/09/29 11:45:31;;;;;;;8.32;1.40;;;23.10;96.70;;;;;;5069141;28;20071;-84
2022/09/29 11:48:31;;;;;;;7.15;1.10;;;23.30;96.70;;;;;;5085055;28;20043;-82
2022/09/29 11:51:08;;;;;;;5.68;1.00;;;23.30;96.70;;;;;;5083654;28;20074;-84
2022/09/29 11:53:51;;;;;;;6.03;1.38;;;23.50;96.70;;;;;;5069309;28;20452;-82
2022/09/29 11:56:30;;;;;;;8.88;1.27;;;23.60;96.70;;;;;;5082425;28;20143;-83
2022/09/29 11:59:21;;;;;;;5.32;1.25;;;23.70;96.70;;;;;;5087268;28;20069;-81
2022/09/29 12:02:07;;;;;;;6.95;1.33;;;23.70;96.70;;;;;;5084329;28;20046;-86
2022/09/29 12:04:49;;;;;;;7.22;1.73;;;23.60;96.70;;;;;;5082195;28;20134;-88
2022/09/29 12:07:30;;;;;;;6.85;1.40;;;23.30;96.70;;;;;;5081246;28;20094;-85
2022/09/29 12:10:24;;;;;;;8.02;1.70;;;23.30;96.70;;;;;;5079799;28;20693;-86
2022/09/29 12:13:02;;;;;;;11.88;2.05;;;23.20;96.70;;;;;;5067164;28;20110;-85
2022/09/29 12:15:42;;;;;;;7.55;1.40;;;23.10;96.70;;;;;;5088716;28;20420;-83
2022/09/29 12:18:17;;;;;;;6.40;1.30;;;23.20;96.70;;;;;;5087614;28;20054;-83
2022/09/29 12:20:48;;;;;;;9.98;2.10;;;23.20;96.70;;;;;;5088275;28;20227;-84
2022/09/29 12:23:19;;;;;;;9.05;1.42;;;23.20;96.70;;;;;;5087153;28;20044;-79
2022/09/29 12:25:55;;;;;;;5.70;1.23;;;23.10;96.70;;;;;;5077599;28;20123;-80
2022/09/29 12:28:29;;;;;;;8.65;1.75;;;22.90;96.70;;;;;;5085794;28;20557;-80
2022/09/29 12:31:03;;;;;;;7.72;1.23;;;22.90;96.70;;;;;;5085143;28;20410;-80
2022/09/29 12:33:38;;;;;;;5.78;1.55;;;23.00;96.70;;;;;;5085917;28;20063;-81
2022/09/29 12:39:32;;;;;;;7.72;1.27;;;23.10;96.70;;;;;;5102097;28;20513;-83
2022/09/29 12:42:14;;;;;;;4.72;1.02;;;23.40;96.70;;;;;;5079927;28;20044;-81
2022/09/29 12:44:46;;;;;;;5.60;1.30;;;23.40;96.70;;;;;;5083016;28;20052;-81
2022/09/29 12:47:22;;;;;;;5.93;1.33;;;23.60;96.70;;;;;;5085767;28;20050;-79
2022/09/29 12:50:02;;;;;;;8.55;1.55;;;23.50;96.70;;;;;;5084303;28;20688;-80
2022/09/29 12:52:39;;;;;;;5.07;1.08;;;23.40;96.70;;;;;;5075614;28;20052;-80
2022/09/29 12:55:18;;;;;;;5.78;0.70;;;23.60;96.70;;;;;;5081078;28;20085;-78
2022/09/29 12:57:47;;;;;;;6.05;1.08;;;23.70;96.70;;;;;;5075634;28;20054;-81
2022/09/29 13:00:17;;;;;;;4.45;1.05;;;23.70;96.70;;;;;;5087719;28;20055;-77
2022/09/29 13:03:15;;;;;;;4.25;0.77;;;23.70;96.70;;;;;;5086560;28;20068;-81
2022/09/29 13:06:13;;;;;;;7.05;0.98;;;23.50;96.70;;;;;;5075589;28;20135;-77
2022/09/29 13:09:08;;;;;;;3.33;0.82;;;23.60;96.70;;;;;;5083711;28;20040;-81
2022/09/29 13:12:08;;;;;;;7.10;0.90;;;23.50;96.70;;;;;;5081633;28;20135;-80
2022/09/29 13:15:02;;;;;;;5.03;1.13;;;23.60;96.70;;;;;;5078025;28;20052;-79
2022/09/29 13:17:45;;;;;;;4.38;0.90;;;23.50;96.70;;;;;;5084472;28;20044;-80
2022/09/29 13:20:52;;;;;;;4.93;0.73;;;23.60;96.70;;;;;;5083407;28;20135;-80